Rackwick, United Kingdom
Current Conditions -  °F | °C
As of 2:20 AM on Tuesday 23 Dec 2014 (Local Time) from EGPA Reporting Station
Few Clouds Few Clouds  
Wind Chill: 33°   Ceiling: Unl
Heat Index: 41°   Visibility: 6mi
Dew Point: 37°   Wind: 16mph
Humidity: 87%   Direction: 260°W
Pressure: 29.38"   Gusts: NA
Location:  58.87°N, 3.38°W
Report Text: EGPA 230220Z AUTO 26014KT 9999 FEW009/// 05/03 Q0995 RERA
Loading
Personal Weather Stations






























Interactive Weather Map New forecast layout! Learn more

10-Day Weather Forecast

Advertisements
Track Severe Weather on mobile